Pagina principale
METAR-TAF:

METAR-TAF

Aeroporti :

Aeroporto di Karlsruhe-Baden-Baden

Baden-Baden, Germania

latitudine: 48-46-43N, longitudine: 008-04-47E, altezza: 124 m

Osservazione

Il bollettino è stato emesso 29 minuti fa, alle 19:50 UTC
Vento 2 kt da nord/nord-est
Temperature 28°C
Umidità 74%
Pressione 1020 hPa
Visibilità 10 km o più
nessuna nube inferiore a 1500 m e nessun cumulonembo

METAR: EDSB 261950Z 03002KT CAVOK 28/23 Q1020

Ora: 22:19 (20:19 UTC)

Previsione

Il bollettino è stato emesso 3 ore e 19 minuti fa, alle 17:00 UTC
Previsione valida dal 26 alle 18 UTC al 27 alle 18 UTC
Vento 8 kt da nord/nord-est
Visibilità 10 km o più
nessuna nube inferiore a 1500 m e nessun cumulonembo

TAF: EDSB 261700Z 2618/2718 02008KT CAVOK

Osservazioni e previsioni meteorologiche di più di 4000 aeroporti (messaggi METAR e TAF).

Le stazioni disponibili sono rappresentate dai dischi gialli e rossi sulla carta.

Puntare il mouse per vedere il nome della stazione.

Clicca sopra per visualizzare le osservazioni e previsioni meteorologiche.

Per cambiare la mappa : fare clic sui pulsanti verdi con una croce nera per ingrandire, il pulsante verde con un trattino per diminuire, o sulla freccia verde per le mappe adiacenti.


METAR-TAF: